createdAt,value
2019-02-15T00:02:38.448Z,6.30
2019-02-15T00:05:41.027Z,6.60
2019-02-15T00:08:43.673Z,6.77
2019-02-15T00:11:46.259Z,6.60
2019-02-15T00:14:48.999Z,6.30
2019-02-15T00:18:11.150Z,5.97
2019-02-15T00:21:25.247Z,5.90
2019-02-15T00:24:27.818Z,6.23
2019-02-15T00:27:30.494Z,5.97
2019-02-15T00:30:36.129Z,5.80
2019-02-15T00:33:38.800Z,6.93
2019-02-15T00:36:44.464Z,6.87
2019-02-15T00:39:47.093Z,6.80
2019-02-15T00:42:49.715Z,6.37
2019-02-15T00:46:21.270Z,6.27
2019-02-15T00:49:38.239Z,7.03
2019-02-15T00:52:49.504Z,7.10
2019-02-15T00:56:07.699Z,6.93
2019-02-15T00:59:18.353Z,7.40
2019-02-15T01:02:46.088Z,7.33
2019-02-15T01:06:03.614Z,6.90
2019-02-15T01:09:44.003Z,6.63
2019-02-15T01:12:53.670Z,7.10
2019-02-15T01:15:56.278Z,7.70
2019-02-15T01:18:58.890Z,6.63
2019-02-15T01:22:01.688Z,6.90
2019-02-15T01:25:04.549Z,7.30
2019-02-15T01:28:12.666Z,6.70
2019-02-15T01:31:33.512Z,7.30
2019-02-15T01:34:49.311Z,7.00
2019-02-15T01:38:14.310Z,7.30
2019-02-15T01:41:31.254Z,6.90
2019-02-15T01:44:50.616Z,7.00
2019-02-15T01:48:12.697Z,7.90
2019-02-15T01:51:15.266Z,7.20
2019-02-15T01:54:17.860Z,7.70
2019-02-15T01:57:22.678Z,7.20
2019-02-15T02:00:28.015Z,7.20
2019-02-15T02:03:30.623Z,7.90
2019-02-15T02:06:33.215Z,7.70
2019-02-15T02:09:35.808Z,7.60
2019-02-15T02:12:38.673Z,6.97
2019-02-15T02:15:41.262Z,7.80
2019-02-15T02:18:43.918Z,7.60
2019-02-15T02:21:46.783Z,7.70
2019-02-15T02:24:49.422Z,7.23
2019-02-15T02:27:52.092Z,7.70
2019-02-15T02:30:54.739Z,8.07
2019-02-15T02:33:57.364Z,7.73
2019-02-15T02:37:00.059Z,8.23
2019-02-15T02:40:02.841Z,8.03
2019-02-15T02:43:06.530Z,7.30
2019-02-15T02:46:09.178Z,8.00
2019-02-15T02:49:11.975Z,7.90
2019-02-15T02:52:14.771Z,7.97
2019-02-15T02:55:18.312Z,8.20
2019-02-15T02:58:20.978Z,7.53
2019-02-15T03:01:23.640Z,7.33
2019-02-15T03:04:26.292Z,7.97
2019-02-15T03:07:28.834Z,8.43
2019-02-15T03:10:31.514Z,8.80
2019-02-15T03:13:34.229Z,7.80
2019-02-15T03:16:36.880Z,7.80
2019-02-15T03:19:39.551Z,7.87
2019-02-15T03:22:42.162Z,7.67
2019-02-15T03:25:44.850Z,7.63
2019-02-15T03:28:47.387Z,8.00
2019-02-15T03:31:50.003Z,7.50
2019-02-15T03:34:52.675Z,7.70
2019-02-15T03:38:01.047Z,7.83
2019-02-15T03:41:07.473Z,8.03
2019-02-15T03:44:10.010Z,8.03
2019-02-15T03:47:14.608Z,7.30
2019-02-15T03:50:17.445Z,7.43
2019-02-15T03:53:20.123Z,7.40
2019-02-15T03:56:22.803Z,7.60
2019-02-15T03:59:25.491Z,7.27
2019-02-15T04:02:28.103Z,7.63
2019-02-15T04:05:30.734Z,7.50
2019-02-15T04:08:33.469Z,7.90
2019-02-15T04:11:36.213Z,7.87
2019-02-15T04:14:38.788Z,7.40
2019-02-15T04:17:41.332Z,7.30
2019-02-15T04:20:44.027Z,7.10
2019-02-15T04:23:46.749Z,7.20
2019-02-15T04:26:49.273Z,6.70
2019-02-15T04:29:51.961Z,7.67
2019-02-15T04:32:54.600Z,7.27
2019-02-15T04:35:57.264Z,8.13
2019-02-15T04:39:00.100Z,8.83
2019-02-15T04:42:02.849Z,6.90
2019-02-15T04:45:05.922Z,7.10
2019-02-15T04:48:08.730Z,6.90
2019-02-15T04:51:11.394Z,6.33
2019-02-15T04:54:14.200Z,7.40
2019-02-15T04:57:16.829Z,6.50
2019-02-15T05:00:19.482Z,7.13
2019-02-15T05:03:22.448Z,6.57
2019-02-15T05:06:25.192Z,6.47
2019-02-15T05:09:30.048Z,6.50
2019-02-15T05:12:32.725Z,5.97
2019-02-15T05:15:36.214Z,6.93
2019-02-15T05:18:38.898Z,6.47
2019-02-15T05:21:41.654Z,6.20
2019-02-15T05:24:44.218Z,6.77
2019-02-15T05:27:46.801Z,5.90
2019-02-15T05:30:49.471Z,6.50
2019-02-15T05:33:52.169Z,6.17
2019-02-15T05:36:54.847Z,6.80
2019-02-15T05:39:57.526Z,7.10
2019-02-15T05:43:00.178Z,6.50
2019-02-15T05:46:02.830Z,6.80
2019-02-15T05:49:05.429Z,6.70
2019-02-15T05:52:08.226Z,6.50
2019-02-15T05:55:11.191Z,7.17
2019-02-15T05:58:13.926Z,6.20
2019-02-15T06:01:17.870Z,6.30
2019-02-15T06:04:20.379Z,5.77
2019-02-15T06:07:23.138Z,5.57
2019-02-15T06:10:25.815Z,6.53
2019-02-15T06:13:28.444Z,5.40
2019-02-15T06:16:31.093Z,5.47
2019-02-15T06:19:33.797Z,5.93
2019-02-15T06:22:36.469Z,5.50
2019-02-15T06:25:39.204Z,6.13
2019-02-15T06:28:41.918Z,5.60
2019-02-15T06:31:44.558Z,5.53
2019-02-15T06:34:47.229Z,5.60
2019-02-15T06:37:50.850Z,6.30
2019-02-15T06:40:53.428Z,5.33
2019-02-15T06:43:57.071Z,5.67
2019-02-15T06:46:59.803Z,4.97
2019-02-15T06:50:02.538Z,5.77
2019-02-15T06:53:05.170Z,6.13
2019-02-15T06:56:07.835Z,6.40
2019-02-15T06:59:29.888Z,5.60
2019-02-15T07:02:42.178Z,5.53
2019-02-15T07:05:44.716Z,5.10
2019-02-15T07:08:47.305Z,5.50
2019-02-15T07:11:50.020Z,6.07
2019-02-15T07:14:52.695Z,5.40
2019-02-15T07:17:55.261Z,5.60
2019-02-15T07:20:57.834Z,6.07
2019-02-15T07:24:00.440Z,6.17
2019-02-15T07:27:03.056Z,6.10
2019-02-15T07:30:07.010Z,5.93
2019-02-15T07:33:09.843Z,5.80
2019-02-15T07:36:12.586Z,5.80
2019-02-15T07:39:15.274Z,6.17
2019-02-15T07:42:17.875Z,5.47
2019-02-15T07:45:20.442Z,5.50
2019-02-15T07:48:23.089Z,5.10
2019-02-15T07:51:25.706Z,5.27
2019-02-15T07:54:28.329Z,4.60
2019-02-15T07:57:30.949Z,5.50
2019-02-15T08:00:33.631Z,5.27
2019-02-15T08:03:36.393Z,5.47
2019-02-15T08:06:39.191Z,6.00
2019-02-15T08:09:41.736Z,5.57
2019-02-15T08:12:44.358Z,5.33
2019-02-15T08:15:52.139Z,5.30
2019-02-15T08:18:51.629Z,5.20
2019-02-15T08:21:54.192Z,5.30
2019-02-15T08:24:56.994Z,5.00
2019-02-15T08:27:59.675Z,5.63
2019-02-15T08:31:02.251Z,5.30
2019-02-15T08:34:04.853Z,5.30
2019-02-15T08:37:07.551Z,5.10
2019-02-15T08:40:10.236Z,5.57
2019-02-15T08:43:12.854Z,5.00
2019-02-15T08:46:15.474Z,5.33
2019-02-15T08:49:19.208Z,5.50
2019-02-15T08:52:21.870Z,5.77
2019-02-15T08:55:24.554Z,5.20
2019-02-15T08:58:27.132Z,5.13
2019-02-15T09:01:29.756Z,5.20
2019-02-15T09:04:32.326Z,5.10
2019-02-15T09:07:34.875Z,5.20
2019-02-15T09:10:37.519Z,5.53
2019-02-15T09:13:40.698Z,4.90
2019-02-15T09:16:45.173Z,4.20
2019-02-15T09:19:47.706Z,4.57
2019-02-15T09:22:50.393Z,4.70
2019-02-15T09:25:52.998Z,4.40
2019-02-15T09:29:00.740Z,4.53
2019-02-15T09:32:03.369Z,4.83
2019-02-15T09:35:06.786Z,4.70
2019-02-15T09:38:09.560Z,5.03
2019-02-15T09:41:12.238Z,4.70
2019-02-15T09:44:15.018Z,5.40
2019-02-15T09:47:17.698Z,4.80
2019-02-15T09:50:20.395Z,4.60
2019-02-15T09:53:23.019Z,4.87
2019-02-15T09:56:25.690Z,4.50
2019-02-15T09:59:28.290Z,4.87
2019-02-15T10:02:30.999Z,5.13
2019-02-15T10:05:33.684Z,4.60
2019-02-15T10:08:36.266Z,4.73
2019-02-15T10:11:38.923Z,5.50
2019-02-15T10:14:41.522Z,4.40
2019-02-15T10:17:44.163Z,5.10
2019-02-15T10:20:46.757Z,4.53
2019-02-15T10:23:49.586Z,4.43
2019-02-15T10:26:52.266Z,4.80
2019-02-15T10:29:55.038Z,4.70
2019-02-15T10:32:57.801Z,4.40
2019-02-15T10:36:00.470Z,4.10
2019-02-15T10:39:04.896Z,5.13
2019-02-15T10:42:09.919Z,5.07
2019-02-15T10:45:12.860Z,4.80
2019-02-15T10:48:15.639Z,5.30
2019-02-15T10:51:18.282Z,5.67
2019-02-15T10:54:20.925Z,4.93
2019-02-15T10:57:23.471Z,4.90
2019-02-15T11:00:26.255Z,5.57
2019-02-15T11:03:28.831Z,5.47
2019-02-15T11:06:31.415Z,4.73
2019-02-15T11:09:34.216Z,4.57
2019-02-15T11:12:36.791Z,5.20
2019-02-15T11:15:39.366Z,5.40
2019-02-15T11:18:42.330Z,4.83
2019-02-15T11:21:45.020Z,5.03
2019-02-15T11:24:47.613Z,5.00
2019-02-15T11:27:50.230Z,5.13
2019-02-15T11:30:52.845Z,4.70
2019-02-15T11:33:55.479Z,4.90
2019-02-15T11:36:58.234Z,4.70
2019-02-15T11:40:00.855Z,4.40
2019-02-15T11:43:03.589Z,4.63
2019-02-15T11:46:07.255Z,5.00
2019-02-15T11:49:09.807Z,4.20
2019-02-15T11:52:12.416Z,4.67
2019-02-15T11:55:16.149Z,5.50
2019-02-15T11:58:18.803Z,4.40
2019-02-15T12:01:21.497Z,4.30
2019-02-15T12:04:24.039Z,4.27
2019-02-15T12:07:26.717Z,4.50
2019-02-15T12:10:29.405Z,4.37
2019-02-15T12:13:32.107Z,3.90
2019-02-15T12:16:34.619Z,4.43
2019-02-15T12:19:37.318Z,4.10
2019-02-15T12:22:41.056Z,4.67
2019-02-15T12:25:43.622Z,4.43
2019-02-15T12:28:46.413Z,4.40
2019-02-15T12:31:49.177Z,4.97
2019-02-15T12:34:51.795Z,4.40
2019-02-15T12:37:54.598Z,4.77
2019-02-15T12:40:57.511Z,5.03
2019-02-15T12:44:00.321Z,4.50
2019-02-15T12:47:02.950Z,4.83
2019-02-15T12:50:07.957Z,4.27
2019-02-15T12:53:10.846Z,4.63
2019-02-15T12:56:13.501Z,4.90
2019-02-15T12:59:16.090Z,4.83
2019-02-15T13:02:18.780Z,4.30
2019-02-15T13:05:21.526Z,4.83
2019-02-15T13:08:26.384Z,4.40
2019-02-15T13:11:28.955Z,5.33
2019-02-15T13:14:32.706Z,5.20
2019-02-15T13:17:35.431Z,4.70
2019-02-15T13:20:38.121Z,4.67
2019-02-15T13:23:40.692Z,5.07
2019-02-15T13:26:43.432Z,4.33
2019-02-15T13:29:46.065Z,4.47
2019-02-15T13:32:48.783Z,4.43
2019-02-15T13:35:51.391Z,4.10
2019-02-15T13:38:53.991Z,4.60
2019-02-15T13:41:56.682Z,4.47
2019-02-15T13:44:59.365Z,4.70
2019-02-15T13:48:01.947Z,4.80
2019-02-15T13:51:04.556Z,4.40
2019-02-15T13:54:07.249Z,4.27
2019-02-15T13:57:09.945Z,4.33
2019-02-15T14:00:12.630Z,4.43
2019-02-15T14:03:15.365Z,4.00
2019-02-15T14:06:18.001Z,4.63
2019-02-15T14:09:20.502Z,5.43
2019-02-15T14:12:23.105Z,4.27
2019-02-15T14:15:25.874Z,3.70
2019-02-15T14:18:29.526Z,3.90
2019-02-15T14:21:32.214Z,3.90
2019-02-15T14:24:35.011Z,3.93
2019-02-15T14:27:37.711Z,3.77
2019-02-15T14:30:40.380Z,4.00
2019-02-15T14:33:43.133Z,3.70
2019-02-15T14:36:45.809Z,3.67
2019-02-15T14:39:48.419Z,3.40
2019-02-15T14:42:50.978Z,3.80
2019-02-15T14:45:53.646Z,3.80
2019-02-15T14:48:56.215Z,3.80
2019-02-15T14:51:58.867Z,3.70
2019-02-15T14:55:01.695Z,3.80
2019-02-15T14:58:04.377Z,3.60
2019-02-15T15:01:07.123Z,3.47
2019-02-15T15:04:09.892Z,3.67
2019-02-15T15:07:12.587Z,3.40
2019-02-15T15:10:15.230Z,3.90
2019-02-15T15:13:17.920Z,3.40
2019-02-15T15:16:20.482Z,3.20
2019-02-15T15:19:23.047Z,3.37
2019-02-15T15:22:25.627Z,3.37
2019-02-15T15:25:28.236Z,3.27
2019-02-15T15:28:30.910Z,3.40
2019-02-15T15:31:33.497Z,3.47
2019-02-15T15:34:36.263Z,3.97
2019-02-15T15:37:39.021Z,5.63
2019-02-15T15:40:41.692Z,5.80
2019-02-15T15:43:44.477Z,4.30
2019-02-15T15:46:47.181Z,3.67
2019-02-15T15:49:49.697Z,3.77
2019-02-15T15:52:52.395Z,3.60
2019-02-15T15:55:55.140Z,3.53
2019-02-15T15:58:57.715Z,3.40
2019-02-15T16:02:00.465Z,3.80
2019-02-15T16:05:03.166Z,3.90
2019-02-15T16:08:05.912Z,3.17
2019-02-15T16:11:08.476Z,4.07
2019-02-15T16:14:11.082Z,4.03
2019-02-15T16:17:13.839Z,3.70
2019-02-15T16:20:16.466Z,3.93
2019-02-15T16:23:19.044Z,5.20
2019-02-15T16:26:21.768Z,5.13
2019-02-15T16:29:24.367Z,5.20
2019-02-15T16:32:27.023Z,4.20
2019-02-15T16:35:29.591Z,3.90
2019-02-15T16:38:32.281Z,4.00
2019-02-15T16:41:34.933Z,4.90
2019-02-15T16:44:37.535Z,4.20
2019-02-15T16:47:40.271Z,4.00
2019-02-15T16:50:42.957Z,4.10
2019-02-15T16:53:45.506Z,4.90
2019-02-15T16:56:48.061Z,5.33
2019-02-15T16:59:50.877Z,12.27
2019-02-15T17:02:53.526Z,8.20
2019-02-15T17:05:56.270Z,5.70
2019-02-15T17:08:58.981Z,5.40
2019-02-15T17:12:01.812Z,5.10
2019-02-15T17:15:05.565Z,4.80
2019-02-15T17:18:08.330Z,4.50
2019-02-15T17:21:10.862Z,4.33
2019-02-15T17:24:14.365Z,5.00
2019-02-15T17:27:17.015Z,4.50
2019-02-15T17:30:19.573Z,4.10
2019-02-15T17:33:22.282Z,4.07
2019-02-15T17:36:24.867Z,4.53
2019-02-15T17:39:27.599Z,4.40
2019-02-15T17:42:30.321Z,4.07
2019-02-15T17:45:32.990Z,4.30
2019-02-15T17:48:35.854Z,3.80
2019-02-15T17:51:38.548Z,4.10
2019-02-15T17:54:41.154Z,3.90
2019-02-15T17:57:43.905Z,4.37
2019-02-15T18:00:46.486Z,4.20
2019-02-15T18:03:49.186Z,4.37
2019-02-15T18:06:52.087Z,3.80
2019-02-15T18:09:57.627Z,3.90
2019-02-15T18:13:00.294Z,3.80
2019-02-15T18:16:02.996Z,4.00
2019-02-15T18:19:10.134Z,3.63
2019-02-15T18:22:10.517Z,4.30
2019-02-15T18:25:13.183Z,4.10
2019-02-15T18:28:15.916Z,4.10
2019-02-15T18:31:18.567Z,3.63
2019-02-15T18:34:21.216Z,3.40
2019-02-15T18:37:24.132Z,3.37
2019-02-15T18:40:26.968Z,3.80
2019-02-15T18:43:29.810Z,3.43
2019-02-15T18:46:32.601Z,3.40
2019-02-15T18:49:35.229Z,3.50
2019-02-15T18:52:37.997Z,3.80
2019-02-15T18:55:40.900Z,3.23
2019-02-15T18:58:43.562Z,3.43
2019-02-15T19:01:46.450Z,3.90
2019-02-15T19:04:49.099Z,5.80
2019-02-15T19:07:51.806Z,3.73
2019-02-15T19:10:54.426Z,3.80
2019-02-15T19:13:58.900Z,3.40
2019-02-15T19:17:01.575Z,4.13
2019-02-15T19:20:06.277Z,3.27
2019-02-15T19:23:08.916Z,3.23
2019-02-15T19:26:11.541Z,3.40
2019-02-15T19:29:16.411Z,3.20
2019-02-15T19:32:18.818Z,3.57
2019-02-15T19:35:21.716Z,3.97
2019-02-15T19:38:24.467Z,3.97
2019-02-15T19:41:27.180Z,4.30
2019-02-15T19:44:29.840Z,3.30
2019-02-15T19:47:32.623Z,3.73
2019-02-15T19:50:35.372Z,3.23
2019-02-15T19:53:38.209Z,3.83
2019-02-15T19:56:40.868Z,3.30
2019-02-15T19:59:53.195Z,3.63
2019-02-15T20:02:48.152Z,3.20
2019-02-15T20:05:50.757Z,3.63
2019-02-15T20:08:53.339Z,3.57
2019-02-15T20:11:55.983Z,3.80
2019-02-15T20:14:58.738Z,3.47
2019-02-15T20:18:01.282Z,3.00
2019-02-15T20:21:03.952Z,3.60
2019-02-15T20:24:06.714Z,4.00
2019-02-15T20:27:09.433Z,3.20
2019-02-15T20:30:14.253Z,3.57
2019-02-15T20:33:17.017Z,3.57
2019-02-15T20:36:20.555Z,3.67
2019-02-15T20:39:23.221Z,3.50
2019-02-15T20:42:26.057Z,3.57
2019-02-15T20:45:28.842Z,3.40
2019-02-15T20:48:31.516Z,3.90
2019-02-15T20:51:34.235Z,3.47
2019-02-15T20:54:36.955Z,3.80
2019-02-15T20:57:40.348Z,3.80
2019-02-15T21:00:43.002Z,3.90
2019-02-15T21:03:45.725Z,3.63
2019-02-15T21:06:48.482Z,3.70
2019-02-15T21:09:51.166Z,4.00
2019-02-15T21:12:53.829Z,3.50
2019-02-15T21:15:56.691Z,4.10
2019-02-15T21:19:01.557Z,4.63
2019-02-15T21:22:04.306Z,4.17
2019-02-15T21:25:10.158Z,4.20
2019-02-15T21:28:12.803Z,5.07
2019-02-15T21:31:15.513Z,5.17
2019-02-15T21:34:18.170Z,4.30
2019-02-15T21:37:20.834Z,4.43
2019-02-15T21:40:23.413Z,4.67
2019-02-15T21:43:27.090Z,4.00
2019-02-15T21:46:29.647Z,4.30
2019-02-15T21:49:32.233Z,4.10
2019-02-15T21:52:43.544Z,4.30
2019-02-15T21:55:39.293Z,3.90
2019-02-15T21:58:42.073Z,4.30
2019-02-15T22:01:44.782Z,3.97
2019-02-15T22:04:50.511Z,4.13
2019-02-15T22:07:53.118Z,4.40
2019-02-15T22:10:56.771Z,4.10
2019-02-15T22:13:59.624Z,4.37
2019-02-15T22:17:02.310Z,4.57
2019-02-15T22:20:05.579Z,4.47
2019-02-15T22:23:08.222Z,5.17
2019-02-15T22:26:11.007Z,5.20
2019-02-15T22:29:13.679Z,4.43
2019-02-15T22:32:16.383Z,4.47
2019-02-15T22:35:18.977Z,4.50
2019-02-15T22:38:21.681Z,4.60
2019-02-15T22:41:24.376Z,4.40
2019-02-15T22:44:27.196Z,5.93
2019-02-15T22:47:29.787Z,4.27
2019-02-15T22:50:36.045Z,5.27
2019-02-15T22:53:37.002Z,4.50
2019-02-15T22:56:39.667Z,5.63
2019-02-15T22:59:42.190Z,4.70
2019-02-15T23:02:44.826Z,4.60
2019-02-15T23:05:47.420Z,5.07
2019-02-15T23:08:50.994Z,4.97
2019-02-15T23:11:53.559Z,5.10
2019-02-15T23:14:56.176Z,4.43
2019-02-15T23:17:58.711Z,4.50
2019-02-15T23:21:01.303Z,5.20
2019-02-15T23:24:05.105Z,4.40
2019-02-15T23:27:07.777Z,4.33
2019-02-15T23:30:10.301Z,4.63
2019-02-15T23:33:12.873Z,4.40
2019-02-15T23:36:15.536Z,4.40
2019-02-15T23:39:18.159Z,4.90
2019-02-15T23:42:20.777Z,5.37
2019-02-15T23:45:23.391Z,5.07
2019-02-15T23:48:26.074Z,4.80
2019-02-15T23:51:28.605Z,4.63
2019-02-15T23:54:31.295Z,4.60
2019-02-15T23:57:33.898Z,4.90
